Anderson, SC

1:21 AM EDT on September 23, 2014 (GMT -0400)
Oconee County Regional | Change Station
CLOSE
Current Station
Airport
Location: Clemson,
Elevation: 892 ft
Nearby Weather Stations

Elev 892 ft 34.67 °N, 82.88 °W | Updated 27 minutes ago

Partly Cloudy
Partly Cloudy
65 °F
Feels Like 65 °F
N
4
Wind Variable Wind from North

Today
High -- | Low -- °F
--% Chance of Precip.
Yesterday
High -- | Low -- °F
Precip. -- in
7:19 AM 7:25 PM
Waning Crescent, 1% visible
Pressure 30.14 in
Visibility 10.0 miles
Clouds Few 5000 ft
Dew Point 52 °F
Humidity 63%
Rainfall 0.00 in
Snow Depth Not available.
UV 0 out of 12
Pollen 6.80 out of 12
Ozone Good
PM2.5 Good
Flu Activity Not available.
METAR KCEU 230454Z AUTO 35003KT 10SM FEW050 18/11 A3017 RMK AO2 SLP207 T01830111 402720183

More Conditions Fewer Conditions

Pressure 30.14 in
Visibility 10.0 miles
Clouds Few 5000 ft
Dew Point 52 °F
Humidity 63%
Rainfall 0.00 in
Snow Depth Not available.
UV 0 out of 12
Pollen 6.80 out of 12
Ozone Good
PM2.5 Good
Flu Activity Not available.
METAR KCEU 230454Z AUTO 35003KT 10SM FEW050 18/11 A3017 RMK AO2 SLP207 T01830111 402720183

More Conditions Fewer Conditions

10-Day Weather Forecast

Almanac

Astronomy

Sep. 23, 2014 Rise Set
Actual Time 7:19 AM EDT 7:25 PM EDT
Civil Twilight 6:54 AM EDT 7:51 PM EDT
Nautical Twilight 6:24 AM EDT 8:20 PM EDT
Astronomical Twilight 5:55 AM EDT 8:49 PM EDT
Moon 6:43 AM EDT 7:04 PM EDT
Length of Visible Light 12h 56m
Length of Day
12h 06m
Tomorrow will be 2m 8s shorter.
Waning Crescent, 1% of the Moon is Illuminated
Today
Waning Crescent
Sep 24
New
Oct 1
First Quarter
Oct 8
Full
Oct 15
Last Quarter

Today's Extremes

State Highs State Lows

Community

WunderPhotos

Upload Photos

1,755,606 photos uploaded!

Nearby

Air Quality

  Air Quality AQ Index Pollutant
Yesterday Good
PM2.5
Yesterday Good
OZONE
Current Good
OZONE
Current Good
PM2.5
Monday Good
OZONE
Tuesday Good
OZONE

Snow Depth

Station Depth Elevation
No new snow has been reported.

Earthquake Activity

City Distance Mag. Time & Date
Sweetwater, Tennessee 126 miles 2.5 3:54 PM EDT
2014-09-20
New Ellenton, South Carolina 91 miles 2.6 4:38 PM EDT
2014-09-19
Minimum magnitude displayed is 2.5.

Coastal Water Temperatures

Place Temperature
No Stations Reporting

Nearby Weather Stations